createdAt,value
2023-03-08T00:01:47.017Z,5.13
2023-03-08T00:04:15.911Z,4.50
2023-03-08T00:06:50.523Z,4.43
2023-03-08T00:09:20.521Z,5.07
2023-03-08T00:11:48.657Z,5.07
2023-03-08T00:14:16.755Z,4.47
2023-03-08T00:16:45.195Z,4.30
2023-03-08T00:19:13.650Z,4.83
2023-03-08T00:21:41.895Z,3.50
2023-03-08T00:24:10.385Z,3.90
2023-03-08T00:26:40.055Z,3.80
2023-03-08T00:29:08.504Z,3.83
2023-03-08T00:31:36.883Z,3.20
2023-03-08T00:34:05.513Z,4.67
2023-03-08T00:36:34.180Z,5.30
2023-03-08T00:39:02.296Z,4.30
2023-03-08T00:41:30.440Z,3.50
2023-03-08T00:43:59.972Z,3.43
2023-03-08T00:46:28.643Z,4.33
2023-03-08T00:48:56.865Z,3.50
2023-03-08T00:51:42.709Z,3.20
2023-03-08T00:54:11.188Z,3.33
2023-03-08T00:56:39.358Z,4.50
2023-03-08T00:59:09.233Z,3.63
2023-03-08T01:01:37.522Z,4.37
2023-03-08T01:04:05.998Z,3.50
2023-03-08T01:06:33.704Z,4.10
2023-03-08T01:09:01.820Z,4.73
2023-03-08T01:11:29.784Z,6.50
2023-03-08T01:13:57.752Z,7.60
2023-03-08T01:16:29.024Z,7.53
2023-03-08T01:18:57.256Z,9.53
2023-03-08T01:21:25.331Z,10.30
2023-03-08T01:23:53.192Z,7.90
2023-03-08T01:26:22.664Z,8.90
2023-03-08T01:28:51.446Z,7.53
2023-03-08T01:31:21.188Z,10.70
2023-03-08T01:33:50.350Z,11.33
2023-03-08T01:36:20.134Z,7.57
2023-03-08T01:38:48.058Z,8.50
2023-03-08T01:41:18.162Z,11.60
2023-03-08T01:43:46.885Z,10.77
2023-03-08T01:46:25.525Z,8.63
2023-03-08T01:48:57.858Z,11.43
2023-03-08T01:51:31.650Z,10.07
2023-03-08T01:54:00.211Z,10.00
2023-03-08T01:56:28.116Z,9.00
2023-03-08T01:58:55.827Z,10.60
2023-03-08T02:01:23.442Z,8.93
2023-03-08T02:03:51.459Z,8.40
2023-03-08T02:06:20.712Z,8.93
2023-03-08T02:08:48.445Z,12.17
2023-03-08T02:11:16.554Z,11.63
2023-03-08T02:13:44.254Z,9.23
2023-03-08T02:16:14.515Z,10.80
2023-03-08T02:18:53.806Z,10.67
2023-03-08T02:21:22.957Z,8.07
2023-03-08T02:23:51.904Z,9.43
2023-03-08T02:26:19.727Z,11.57
2023-03-08T02:28:47.880Z,11.20
2023-03-08T02:31:16.197Z,9.40
2023-03-08T02:33:43.774Z,8.67
2023-03-08T02:36:11.631Z,9.80
2023-03-08T02:38:39.265Z,9.17
2023-03-08T02:41:08.467Z,8.20
2023-03-08T02:43:36.991Z,9.83
2023-03-08T02:46:04.556Z,10.17
2023-03-08T02:48:32.156Z,8.17
2023-03-08T02:50:59.741Z,9.93
2023-03-08T02:53:27.351Z,8.53
2023-03-08T02:55:54.950Z,9.00
2023-03-08T02:58:23.881Z,10.20
2023-03-08T03:00:51.441Z,10.03
2023-03-08T03:03:19.056Z,9.80
2023-03-08T03:05:46.662Z,8.30
2023-03-08T03:08:14.175Z,10.23
2023-03-08T03:10:41.816Z,10.67
2023-03-08T03:13:09.903Z,10.17
2023-03-08T03:15:40.547Z,10.70
2023-03-08T03:18:08.413Z,9.73
2023-03-08T03:20:36.034Z,9.90
2023-03-08T03:23:04.025Z,10.83
2023-03-08T03:25:31.594Z,8.43
2023-03-08T03:27:59.148Z,10.63
2023-03-08T03:30:26.655Z,9.13
2023-03-08T03:32:55.621Z,10.90
2023-03-08T03:35:23.157Z,11.40
2023-03-08T03:37:50.688Z,11.47
2023-03-08T03:40:18.499Z,9.67
2023-03-08T03:42:46.073Z,10.93
2023-03-08T03:45:13.637Z,12.83
2023-03-08T03:47:41.202Z,12.00
2023-03-08T03:50:11.665Z,9.87
2023-03-08T03:52:39.209Z,9.53
2023-03-08T03:55:08.388Z,12.90
2023-03-08T03:57:35.929Z,12.57
2023-03-08T04:00:04.238Z,10.23
2023-03-08T04:02:31.907Z,10.80
2023-03-08T04:04:59.535Z,10.57
2023-03-08T04:07:28.507Z,10.03
2023-03-08T04:09:56.263Z,11.13
2023-03-08T04:12:23.823Z,9.73
2023-03-08T04:14:51.422Z,10.27
2023-03-08T04:17:18.970Z,13.10
2023-03-08T04:19:46.533Z,12.87
2023-03-08T04:22:14.109Z,12.80
2023-03-08T04:24:43.085Z,10.87
2023-03-08T04:27:10.613Z,12.87
2023-03-08T04:29:38.177Z,10.53
2023-03-08T04:32:06.562Z,9.83
2023-03-08T04:34:34.148Z,10.20
2023-03-08T04:37:01.709Z,15.20
2023-03-08T04:39:29.527Z,10.87
2023-03-08T04:41:58.403Z,11.53
2023-03-08T04:44:25.969Z,11.27
2023-03-08T04:46:53.783Z,11.57
2023-03-08T04:49:21.503Z,9.63
2023-03-08T04:51:49.049Z,10.07
2023-03-08T04:54:16.684Z,11.23
2023-03-08T04:56:44.333Z,15.67
2023-03-08T04:59:13.259Z,11.73
2023-03-08T05:01:42.585Z,11.87
2023-03-08T05:04:11.411Z,11.83
2023-03-08T05:06:39.072Z,10.13
2023-03-08T05:09:06.858Z,13.00
2023-03-08T05:11:34.409Z,11.77
2023-03-08T05:14:01.966Z,12.23
2023-03-08T05:16:30.975Z,12.10
2023-03-08T05:18:58.609Z,12.30
2023-03-08T05:21:26.252Z,10.43
2023-03-08T05:23:53.813Z,11.77
2023-03-08T05:26:21.580Z,10.57
2023-03-08T05:28:49.169Z,12.57
2023-03-08T05:31:18.964Z,10.67
2023-03-08T05:33:50.905Z,12.23
2023-03-08T05:36:19.136Z,13.97
2023-03-08T05:38:46.915Z,12.67
2023-03-08T05:41:16.151Z,11.73
2023-03-08T05:43:43.943Z,10.20
2023-03-08T05:46:13.156Z,11.60
2023-03-08T05:48:40.944Z,10.53
2023-03-08T05:51:11.870Z,12.53
2023-03-08T05:53:39.784Z,9.70
2023-03-08T05:56:11.502Z,9.47
2023-03-08T05:58:41.447Z,11.80
2023-03-08T06:01:14.865Z,10.70
2023-03-08T06:03:42.472Z,17.43
2023-03-08T06:06:11.638Z,10.10
2023-03-08T06:08:39.780Z,10.70
2023-03-08T06:11:07.713Z,11.93
2023-03-08T06:13:35.496Z,12.37
2023-03-08T06:16:03.980Z,12.53
2023-03-08T06:18:31.826Z,13.90
2023-03-08T06:21:00.315Z,11.10
2023-03-08T06:23:30.618Z,11.13
2023-03-08T06:25:58.649Z,10.60
2023-03-08T06:28:27.565Z,10.57
2023-03-08T06:30:55.646Z,10.33
2023-03-08T06:33:24.936Z,12.80
2023-03-08T06:35:59.426Z,17.57
2023-03-08T06:38:30.145Z,10.20
2023-03-08T06:40:58.535Z,12.33
2023-03-08T06:43:26.604Z,10.77
2023-03-08T06:45:54.338Z,11.63
2023-03-08T06:48:22.275Z,12.70
2023-03-08T06:50:50.113Z,12.50
2023-03-08T06:53:17.732Z,12.37
2023-03-08T06:55:46.766Z,10.40
2023-03-08T06:58:14.377Z,10.30
2023-03-08T07:00:42.047Z,13.77
2023-03-08T07:03:09.653Z,10.97
2023-03-08T07:05:37.221Z,11.87
2023-03-08T07:08:05.508Z,11.00
2023-03-08T07:10:33.326Z,11.30
2023-03-08T07:13:02.229Z,10.50
2023-03-08T07:15:29.847Z,11.27
2023-03-08T07:17:59.050Z,11.10
2023-03-08T07:20:28.485Z,12.93
2023-03-08T07:22:56.173Z,10.03
2023-03-08T07:25:23.785Z,11.03
2023-03-08T07:27:51.386Z,12.67
2023-03-08T07:30:20.630Z,11.27
2023-03-08T07:32:48.398Z,13.27
2023-03-08T07:35:16.770Z,10.10
2023-03-08T07:37:45.867Z,12.10
2023-03-08T07:40:14.090Z,13.27
2023-03-08T07:42:41.644Z,12.63
2023-03-08T07:45:10.234Z,10.10
2023-03-08T07:47:39.283Z,9.73
2023-03-08T07:50:07.310Z,11.33
2023-03-08T07:52:34.895Z,15.53
2023-03-08T07:55:03.260Z,12.30
2023-03-08T07:57:30.861Z,13.03
2023-03-08T07:59:58.454Z,15.57
2023-03-08T08:02:26.038Z,12.77
2023-03-08T08:04:54.975Z,11.63
2023-03-08T08:07:22.590Z,12.10
2023-03-08T08:09:50.265Z,13.97
2023-03-08T08:12:17.947Z,11.00
2023-03-08T08:14:45.992Z,12.17
2023-03-08T08:17:13.658Z,12.23
2023-03-08T08:19:41.241Z,13.73
2023-03-08T08:22:10.280Z,13.50
2023-03-08T08:24:37.875Z,12.43
2023-03-08T08:27:06.083Z,13.50
2023-03-08T08:29:33.800Z,12.73
2023-03-08T08:32:01.486Z,16.03
2023-03-08T08:34:29.038Z,13.53
2023-03-08T08:36:57.294Z,16.03
2023-03-08T08:39:26.330Z,17.50
2023-03-08T08:41:53.908Z,13.23
2023-03-08T08:44:21.544Z,16.27
2023-03-08T08:46:49.102Z,14.83
2023-03-08T08:49:17.163Z,18.17
2023-03-08T08:51:44.709Z,14.23
2023-03-08T08:54:12.349Z,14.37
2023-03-08T08:56:42.987Z,14.87
2023-03-08T08:59:11.506Z,15.57
2023-03-08T09:01:43.464Z,14.73
2023-03-08T09:04:11.667Z,19.03
2023-03-08T09:06:39.429Z,17.77
2023-03-08T09:09:07.839Z,15.57
2023-03-08T09:11:42.391Z,16.90
2023-03-08T09:14:21.098Z,17.17
2023-03-08T09:16:48.982Z,15.03
2023-03-08T09:19:16.719Z,16.57
2023-03-08T09:21:43.863Z,14.13
2023-03-08T09:24:12.135Z,17.47
2023-03-08T09:26:38.976Z,15.47
2023-03-08T09:29:07.551Z,13.67
2023-03-08T09:31:38.839Z,13.00
2023-03-08T09:34:06.794Z,15.93
2023-03-08T09:36:34.577Z,14.13
2023-03-08T09:39:02.205Z,14.77
2023-03-08T09:41:49.869Z,13.90
2023-03-08T09:44:26.976Z,13.83
2023-03-08T09:46:58.415Z,11.30
2023-03-08T09:49:29.144Z,11.80
2023-03-08T09:52:04.225Z,12.00
2023-03-08T09:54:34.240Z,12.83
2023-03-08T09:57:02.850Z,9.17
2023-03-08T09:59:34.687Z,9.60
2023-03-08T10:02:07.397Z,9.00
2023-03-08T10:04:42.743Z,8.43
2023-03-08T10:07:22.357Z,7.87
2023-03-08T10:09:57.031Z,9.83
2023-03-08T10:12:29.516Z,7.83
2023-03-08T10:15:02.659Z,7.07
2023-03-08T10:17:40.023Z,7.83
2023-03-08T10:20:18.068Z,7.90
2023-03-08T10:22:47.165Z,8.53
2023-03-08T10:25:24.198Z,7.30
2023-03-08T10:27:54.162Z,8.03
2023-03-08T10:30:23.726Z,7.87
2023-03-08T10:32:56.762Z,8.53
2023-03-08T10:35:33.010Z,7.23
2023-03-08T10:38:00.620Z,7.50
2023-03-08T10:40:28.448Z,8.37
2023-03-08T10:43:00.963Z,7.60
2023-03-08T10:45:29.726Z,7.60
2023-03-08T10:48:00.740Z,6.63
2023-03-08T10:50:30.026Z,8.87
2023-03-08T10:53:08.177Z,6.50
2023-03-08T10:55:43.934Z,7.53
2023-03-08T10:58:28.517Z,7.20
2023-03-08T11:00:57.785Z,10.37
2023-03-08T11:03:27.442Z,6.27
2023-03-08T11:05:57.886Z,7.43
2023-03-08T11:08:28.334Z,6.50
2023-03-08T11:11:03.380Z,8.37
2023-03-08T11:13:33.283Z,7.17
2023-03-08T11:16:09.927Z,7.53
2023-03-08T11:18:49.595Z,8.07
2023-03-08T11:21:24.066Z,8.80
2023-03-08T11:23:57.999Z,7.07
2023-03-08T11:26:31.120Z,8.63
2023-03-08T11:29:15.817Z,8.80
2023-03-08T11:31:49.509Z,7.77
2023-03-08T11:34:42.390Z,7.87
2023-03-08T11:37:15.491Z,7.87
2023-03-08T11:39:46.791Z,8.23
2023-03-08T11:42:21.128Z,8.17
2023-03-08T11:45:04.078Z,8.40
2023-03-08T11:47:45.002Z,9.53
2023-03-08T11:50:17.922Z,8.87
2023-03-08T11:52:54.294Z,9.60
2023-03-08T11:55:34.650Z,8.53
2023-03-08T11:58:05.996Z,8.27
2023-03-08T12:00:37.243Z,9.97
2023-03-08T12:03:10.019Z,8.90
2023-03-08T12:05:41.785Z,9.07
2023-03-08T12:08:15.282Z,10.27
2023-03-08T12:10:45.500Z,11.17
2023-03-08T12:13:18.250Z,12.97
2023-03-08T12:15:48.385Z,10.87
2023-03-08T12:18:19.845Z,11.63
2023-03-08T12:20:47.962Z,9.30
2023-03-08T12:23:24.323Z,9.07
2023-03-08T12:25:53.935Z,9.87
2023-03-08T12:28:26.351Z,10.97
2023-03-08T12:31:03.587Z,10.70
2023-03-08T12:33:33.050Z,11.10
2023-03-08T12:36:02.875Z,9.13
2023-03-08T12:38:35.385Z,10.37
2023-03-08T12:41:03.714Z,11.37
2023-03-08T12:43:33.053Z,10.43
2023-03-08T12:46:07.798Z,10.40
2023-03-08T12:48:37.611Z,11.27
2023-03-08T12:51:09.769Z,9.97
2023-03-08T12:53:41.851Z,9.37
2023-03-08T12:56:25.179Z,6.83
2023-03-08T12:58:55.441Z,5.67
2023-03-08T13:01:32.633Z,4.70
2023-03-08T13:04:01.573Z,5.80
2023-03-08T13:06:46.082Z,4.80
2023-03-08T13:09:20.106Z,4.90
2023-03-08T13:11:51.864Z,5.10
2023-03-08T13:14:29.353Z,5.13
2023-03-08T13:16:57.407Z,4.63
2023-03-08T13:19:28.934Z,6.00
2023-03-08T13:22:01.875Z,5.33
2023-03-08T13:24:40.047Z,5.53
2023-03-08T13:27:25.592Z,5.07
2023-03-08T13:29:55.056Z,4.77
2023-03-08T13:32:24.351Z,5.27
2023-03-08T13:35:06.272Z,5.87
2023-03-08T13:37:33.896Z,5.70
2023-03-08T13:40:05.091Z,6.00
2023-03-08T13:42:32.788Z,6.83
2023-03-08T13:45:20.584Z,5.77
2023-03-08T13:47:49.328Z,6.40
2023-03-08T13:50:22.439Z,5.73
2023-03-08T13:52:50.119Z,6.20
2023-03-08T13:55:22.783Z,6.27
2023-03-08T13:57:52.945Z,6.03
2023-03-08T14:00:31.489Z,5.83
2023-03-08T14:02:59.438Z,5.87
2023-03-08T14:05:28.328Z,7.10
2023-03-08T14:08:00.775Z,8.57
2023-03-08T14:10:37.915Z,6.03
2023-03-08T14:13:06.881Z,8.70
2023-03-08T14:15:36.643Z,10.63
2023-03-08T14:18:05.040Z,9.07
2023-03-08T14:20:32.887Z,9.63
2023-03-08T14:23:00.896Z,9.53
2023-03-08T14:25:30.637Z,9.17
2023-03-08T14:27:59.774Z,8.33
2023-03-08T14:30:28.763Z,9.23
2023-03-08T14:33:00.183Z,9.37
2023-03-08T14:35:30.087Z,12.30
2023-03-08T14:37:58.906Z,10.00
2023-03-08T14:40:31.151Z,9.93
2023-03-08T14:43:02.632Z,11.20
2023-03-08T14:45:34.510Z,11.33
2023-03-08T14:48:03.834Z,10.47
2023-03-08T14:50:36.795Z,9.80
2023-03-08T14:53:04.788Z,10.33
2023-03-08T14:55:34.352Z,11.23
2023-03-08T14:58:04.867Z,10.30
2023-03-08T15:00:32.776Z,9.87
2023-03-08T15:03:01.806Z,7.87
2023-03-08T15:05:30.333Z,8.73
2023-03-08T15:08:00.041Z,9.67
2023-03-08T15:10:30.390Z,8.90
2023-03-08T15:12:58.268Z,5.90
2023-03-08T15:15:27.561Z,5.77
2023-03-08T15:17:55.138Z,6.20
2023-03-08T15:20:23.300Z,8.13
2023-03-08T15:22:53.999Z,5.93
2023-03-08T15:25:25.405Z,6.10
2023-03-08T15:27:53.215Z,5.33
2023-03-08T15:30:25.754Z,5.23
2023-03-08T15:32:54.962Z,5.33
2023-03-08T15:35:23.305Z,4.53
2023-03-08T15:37:51.037Z,4.57
2023-03-08T15:40:20.447Z,4.83
2023-03-08T15:42:48.066Z,4.23
2023-03-08T15:45:15.902Z,4.60
2023-03-08T15:47:44.037Z,4.40
2023-03-08T15:50:17.394Z,5.03
2023-03-08T15:52:45.213Z,5.20
2023-03-08T15:55:14.243Z,4.57
2023-03-08T15:57:42.431Z,4.93
2023-03-08T16:00:12.612Z,5.03
2023-03-08T16:02:40.857Z,4.87
2023-03-08T16:05:10.166Z,5.03
2023-03-08T16:07:39.339Z,5.03
2023-03-08T16:10:08.760Z,4.67
2023-03-08T16:12:36.320Z,4.63
2023-03-08T16:15:04.425Z,4.90
2023-03-08T16:17:32.412Z,4.90
2023-03-08T16:20:00.117Z,5.60
2023-03-08T16:22:29.013Z,5.37
2023-03-08T16:24:58.099Z,5.20
2023-03-08T16:27:25.749Z,5.83
2023-03-08T16:29:54.003Z,5.37
2023-03-08T16:32:21.650Z,5.90
2023-03-08T16:34:51.056Z,5.10
2023-03-08T16:37:19.613Z,6.10
2023-03-08T16:39:49.710Z,5.40
2023-03-08T16:42:19.188Z,6.50
2023-03-08T16:44:49.655Z,6.20
2023-03-08T16:47:17.468Z,6.53
2023-03-08T16:49:45.234Z,6.33
2023-03-08T16:52:12.956Z,5.70
2023-03-08T16:54:40.621Z,5.97
2023-03-08T16:57:18.523Z,6.03
2023-03-08T16:59:48.695Z,5.10
2023-03-08T17:02:18.357Z,7.37
2023-03-08T17:04:46.669Z,8.57
2023-03-08T17:07:14.809Z,15.27
2023-03-08T17:09:42.502Z,9.87
2023-03-08T17:12:10.484Z,14.50
2023-03-08T17:14:38.516Z,12.77
2023-03-08T17:17:07.513Z,24.80
2023-03-08T17:19:35.220Z,25.90
2023-03-08T17:22:02.759Z,33.27
2023-03-08T17:24:32.281Z,35.67
2023-03-08T17:27:00.296Z,11.10
2023-03-08T17:29:28.245Z,7.73
2023-03-08T17:31:55.813Z,9.67
2023-03-08T17:34:24.784Z,5.90
2023-03-08T17:36:53.398Z,5.67
2023-03-08T17:39:21.408Z,6.13
2023-03-08T17:41:49.100Z,6.73
2023-03-08T17:44:16.839Z,6.30
2023-03-08T17:46:44.445Z,7.03
2023-03-08T17:49:13.088Z,5.67
2023-03-08T17:51:42.514Z,6.10
2023-03-08T17:54:11.819Z,9.53
2023-03-08T17:56:40.912Z,10.10
2023-03-08T17:59:08.577Z,10.13
2023-03-08T18:01:36.195Z,10.13
2023-03-08T18:04:05.568Z,10.30
2023-03-08T18:06:35.482Z,10.73
2023-03-08T18:09:06.702Z,11.20
2023-03-08T18:11:37.445Z,11.47
2023-03-08T18:14:05.624Z,13.97
2023-03-08T18:16:34.101Z,10.70
2023-03-08T18:19:02.409Z,7.87
2023-03-08T18:21:31.361Z,9.50
2023-03-08T18:23:59.122Z,8.57
2023-03-08T18:26:28.887Z,9.10
2023-03-08T18:28:56.657Z,9.23
2023-03-08T18:31:26.314Z,10.63
2023-03-08T18:33:55.513Z,11.20
2023-03-08T18:36:24.548Z,6.97
2023-03-08T18:38:52.166Z,9.33
2023-03-08T18:41:22.275Z,6.17
2023-03-08T18:43:51.984Z,5.47
2023-03-08T18:46:20.017Z,5.07
2023-03-08T18:48:50.816Z,5.43
2023-03-08T18:51:18.993Z,14.90
2023-03-08T18:53:46.701Z,6.27
2023-03-08T18:56:14.299Z,5.10
2023-03-08T18:58:41.963Z,7.30
2023-03-08T19:01:13.432Z,5.27
2023-03-08T19:03:41.967Z,5.33
2023-03-08T19:06:09.971Z,4.10
2023-03-08T19:08:37.564Z,2.40
2023-03-08T19:11:13.245Z,2.67
2023-03-08T19:13:41.129Z,2.80
2023-03-08T19:16:19.062Z,5.17
2023-03-08T19:18:47.365Z,5.03
2023-03-08T19:21:19.203Z,4.77
2023-03-08T19:23:46.911Z,3.70
2023-03-08T19:26:32.093Z,4.50
2023-03-08T19:29:00.720Z,4.17
2023-03-08T19:31:29.952Z,5.10
2023-03-08T19:33:57.680Z,3.83
2023-03-08T19:36:25.644Z,3.03
2023-03-08T19:38:53.201Z,3.83
2023-03-08T19:41:20.805Z,2.30
2023-03-08T19:43:48.700Z,2.80
2023-03-08T19:46:17.993Z,2.70
2023-03-08T19:48:47.432Z,3.00
2023-03-08T19:51:15.691Z,1.80
2023-03-08T19:53:43.937Z,2.53
2023-03-08T19:56:15.200Z,3.00
2023-03-08T19:58:43.043Z,2.70
2023-03-08T20:01:12.471Z,3.00
2023-03-08T20:03:40.366Z,2.40
2023-03-08T20:06:09.708Z,2.63
2023-03-08T20:08:38.288Z,3.33
2023-03-08T20:11:06.190Z,4.07
2023-03-08T20:13:33.844Z,3.20
2023-03-08T20:16:01.391Z,2.07
2023-03-08T20:18:29.264Z,2.73
2023-03-08T20:20:58.980Z,2.90
2023-03-08T20:23:27.946Z,1.77
2023-03-08T20:25:55.556Z,3.43
2023-03-08T20:28:23.124Z,1.47
2023-03-08T20:30:50.770Z,2.07
2023-03-08T20:33:18.634Z,3.47
2023-03-08T20:35:47.086Z,4.57
2023-03-08T20:38:14.723Z,3.67
2023-03-08T20:40:43.711Z,2.33
2023-03-08T20:43:11.909Z,3.87
2023-03-08T20:45:40.428Z,3.70
2023-03-08T20:48:08.119Z,3.73
2023-03-08T20:50:35.722Z,2.87
2023-03-08T20:53:03.478Z,3.23
2023-03-08T20:55:31.058Z,3.27
2023-03-08T20:58:00.097Z,4.53
2023-03-08T21:00:27.670Z,4.10
2023-03-08T21:02:56.288Z,2.63
2023-03-08T21:05:24.110Z,4.37
2023-03-08T21:07:51.724Z,3.57
2023-03-08T21:10:19.484Z,2.43
2023-03-08T21:12:47.070Z,3.03
2023-03-08T21:15:16.040Z,3.53
2023-03-08T21:17:43.682Z,5.13
2023-03-08T21:20:12.542Z,3.20
2023-03-08T21:22:40.101Z,1.60
2023-03-08T21:25:08.269Z,1.50
2023-03-08T21:27:36.464Z,1.50
2023-03-08T21:30:04.257Z,1.33
2023-03-08T21:32:33.390Z,1.77
2023-03-08T21:35:01.007Z,1.87
2023-03-08T21:37:28.757Z,1.70
2023-03-08T21:39:56.820Z,1.47
2023-03-08T21:42:25.004Z,2.60
2023-03-08T21:44:52.683Z,1.90
2023-03-08T21:47:20.248Z,1.57
2023-03-08T21:49:49.513Z,2.53
2023-03-08T21:52:17.328Z,1.70
2023-03-08T21:54:44.920Z,2.27
2023-03-08T21:57:12.734Z,2.23
2023-03-08T21:59:40.400Z,2.27
2023-03-08T22:02:10.462Z,2.20
2023-03-08T22:04:39.138Z,2.33
2023-03-08T22:07:08.099Z,2.10
2023-03-08T22:09:35.760Z,3.80
2023-03-08T22:12:03.844Z,2.50
2023-03-08T22:14:33.310Z,3.00
2023-03-08T22:17:01.261Z,3.03
2023-03-08T22:19:28.952Z,3.50
2023-03-08T22:21:58.453Z,3.57
2023-03-08T22:24:27.947Z,4.03
2023-03-08T22:26:55.490Z,4.20
2023-03-08T22:29:23.137Z,5.03
2023-03-08T22:31:50.779Z,4.27
2023-03-08T22:34:18.442Z,5.00
2023-03-08T22:36:46.097Z,5.57
2023-03-08T22:39:13.862Z,4.37
2023-03-08T22:41:42.910Z,4.93
2023-03-08T22:44:12.723Z,4.90
2023-03-08T22:46:40.359Z,4.83
2023-03-08T22:49:11.547Z,5.00
2023-03-08T22:51:42.919Z,5.27
2023-03-08T22:54:15.734Z,5.67
2023-03-08T22:56:45.050Z,5.30
2023-03-08T22:59:13.350Z,5.93
2023-03-08T23:01:41.015Z,6.27
2023-03-08T23:04:09.387Z,7.10
2023-03-08T23:06:37.072Z,8.53
2023-03-08T23:09:06.959Z,6.93
2023-03-08T23:11:34.972Z,6.70
2023-03-08T23:14:04.515Z,6.60
2023-03-08T23:16:32.694Z,6.47
2023-03-08T23:19:00.592Z,7.30
2023-03-08T23:21:31.782Z,7.77
2023-03-08T23:23:59.420Z,9.27
2023-03-08T23:26:28.508Z,8.33
2023-03-08T23:28:57.788Z,6.53
2023-03-08T23:31:29.022Z,5.93
2023-03-08T23:33:57.511Z,6.10
2023-03-08T23:36:26.689Z,6.07
2023-03-08T23:38:55.215Z,5.50
2023-03-08T23:41:23.012Z,5.60
2023-03-08T23:43:54.800Z,6.23
2023-03-08T23:46:22.804Z,5.70
2023-03-08T23:48:55.253Z,5.37
2023-03-08T23:51:24.084Z,5.73
2023-03-08T23:53:52.829Z,5.47
2023-03-08T23:56:26.507Z,6.43
2023-03-08T23:58:56.038Z,6.93
